createdAt,value
2019-06-26T00:04:50.702Z,57.80
2019-06-26T00:09:54.800Z,57.76
2019-06-26T00:14:59.925Z,57.35
2019-06-26T00:20:03.980Z,57.51
2019-06-26T00:25:09.763Z,57.52
2019-06-26T00:30:13.841Z,58.14
2019-06-26T00:35:19.955Z,58.14
2019-06-26T00:40:25.062Z,58.38
2019-06-26T00:45:30.555Z,58.94
2019-06-26T00:50:35.703Z,58.67
2019-06-26T00:55:40.768Z,58.63
2019-06-26T01:00:51.998Z,59.04
2019-06-26T01:05:57.770Z,59.09
2019-06-26T01:11:03.435Z,58.44
2019-06-26T01:16:09.702Z,58.28
2019-06-26T01:21:14.769Z,58.29
2019-06-26T01:26:19.926Z,57.95
2019-06-26T01:31:25.031Z,58.21
2019-06-26T01:36:30.110Z,58.48
2019-06-26T01:41:36.293Z,58.46
2019-06-26T01:46:41.469Z,58.22
2019-06-26T01:51:49.334Z,58.04
2019-06-26T01:56:54.426Z,57.94
2019-06-26T02:01:59.469Z,57.77
2019-06-26T02:07:04.962Z,57.62
2019-06-26T02:12:10.043Z,57.92
2019-06-26T02:17:15.120Z,57.93
2019-06-26T02:22:20.421Z,58.40
2019-06-26T02:27:25.891Z,58.92
2019-06-26T02:32:30.996Z,59.77
2019-06-26T02:37:37.317Z,60.28
2019-06-26T02:42:43.528Z,60.61
2019-06-26T02:47:48.652Z,61.16
2019-06-26T02:52:53.713Z,61.75
2019-06-26T02:57:58.771Z,61.98
2019-06-26T03:03:03.868Z,62.36
2019-06-26T03:08:08.896Z,62.21
2019-06-26T03:13:14.020Z,62.11
2019-06-26T03:18:19.461Z,62.19
2019-06-26T03:23:25.036Z,62.23
2019-06-26T03:28:30.148Z,62.02
2019-06-26T03:33:35.317Z,62.07
2019-06-26T03:38:40.427Z,62.05
2019-06-26T03:43:45.904Z,62.13
2019-06-26T03:48:51.220Z,62.53
2019-06-26T03:53:56.364Z,62.53
2019-06-26T03:59:01.557Z,62.34
2019-06-26T04:04:06.642Z,62.77
2019-06-26T04:09:11.816Z,62.77
2019-06-26T04:14:16.989Z,62.36
2019-06-26T04:19:23.218Z,62.88
2019-06-26T04:24:28.379Z,63.18
2019-06-26T04:29:33.754Z,62.73
2019-06-26T04:34:39.331Z,63.32
2019-06-26T04:39:44.720Z,63.32
2019-06-26T04:44:49.841Z,63.16
2019-06-26T04:49:55.260Z,63.16
2019-06-26T04:55:00.368Z,62.64
2019-06-26T05:00:07.896Z,62.38
2019-06-26T05:05:13.271Z,62.25
2019-06-26T05:10:19.076Z,62.57
2019-06-26T05:15:24.177Z,62.02
2019-06-26T05:20:29.229Z,62.26
2019-06-26T05:25:39.579Z,61.93
2019-06-26T05:30:45.366Z,61.81
2019-06-26T05:35:50.484Z,61.77
2019-06-26T05:40:55.484Z,61.80
2019-06-26T05:46:00.514Z,62.05
2019-06-26T05:51:06.869Z,62.27
2019-06-26T05:56:12.421Z,62.07
2019-06-26T06:01:17.964Z,62.12
2019-06-26T06:06:23.408Z,62.39
2019-06-26T06:11:28.924Z,62.46
2019-06-26T06:16:46.883Z,62.12
2019-06-26T06:21:42.328Z,63.09
2019-06-26T06:26:47.399Z,62.26
2019-06-26T06:31:52.970Z,61.86
2019-06-26T06:36:58.691Z,61.78
2019-06-26T06:42:04.156Z,61.62
2019-06-26T06:47:09.581Z,61.15
2019-06-26T06:52:16.798Z,60.84
2019-06-26T06:57:21.627Z,61.04
2019-06-26T07:02:26.655Z,60.80
2019-06-26T07:07:31.803Z,61.13
2019-06-26T07:12:39.231Z,58.71
2019-06-26T07:17:44.300Z,56.91
2019-06-26T07:22:50.077Z,56.89
2019-06-26T07:27:55.403Z,55.49
2019-06-26T07:33:00.502Z,54.61
2019-06-26T07:38:05.641Z,54.41
2019-06-26T07:43:10.647Z,54.66
2019-06-26T07:48:15.827Z,53.40
2019-06-26T07:53:21.095Z,52.81
2019-06-26T07:58:26.110Z,52.15
2019-06-26T08:03:32.075Z,51.65
2019-06-26T08:08:37.233Z,51.18
2019-06-26T08:13:42.382Z,51.00
2019-06-26T08:18:48.889Z,50.08
2019-06-26T08:23:54.339Z,49.45
2019-06-26T08:29:00.321Z,49.39
2019-06-26T08:34:05.405Z,49.74
2019-06-26T08:39:10.828Z,49.14
2019-06-26T08:44:19.023Z,49.08
2019-06-26T08:49:26.404Z,48.37
2019-06-26T08:54:33.608Z,48.23
2019-06-26T08:59:38.730Z,48.14
2019-06-26T09:04:43.815Z,47.40
2019-06-26T09:09:49.341Z,46.86
2019-06-26T09:14:54.434Z,46.93
2019-06-26T09:19:59.603Z,45.50
2019-06-26T09:25:21.645Z,45.98
2019-06-26T09:30:18.355Z,44.26
2019-06-26T09:35:23.473Z,43.30
2019-06-26T09:40:31.863Z,43.55
2019-06-26T09:45:37.250Z,43.50
2019-06-26T09:50:43.014Z,42.74
2019-06-26T09:55:58.510Z,43.04
2019-06-26T10:01:03.708Z,41.06
2019-06-26T10:06:09.037Z,40.26
2019-06-26T10:11:14.933Z,39.56
2019-06-26T10:16:20.118Z,38.53
2019-06-26T10:21:26.753Z,38.57
2019-06-26T10:26:32.872Z,39.60
2019-06-26T10:31:37.912Z,39.56
2019-06-26T10:36:44.291Z,39.70
2019-06-26T10:41:49.956Z,38.79
2019-06-26T10:46:58.573Z,38.78
2019-06-26T10:52:04.927Z,38.65
2019-06-26T10:57:10.047Z,37.42
2019-06-26T11:02:16.992Z,37.93
2019-06-26T11:07:22.252Z,37.64
2019-06-26T11:12:28.048Z,36.99
2019-06-26T11:17:34.518Z,36.18
2019-06-26T11:22:39.674Z,34.92
2019-06-26T11:27:44.714Z,34.58
2019-06-26T11:32:50.149Z,34.27
2019-06-26T11:37:58.170Z,33.50
2019-06-26T11:43:03.423Z,33.29
2019-06-26T11:48:09.502Z,32.80
2019-06-26T11:53:14.771Z,33.30
2019-06-26T11:58:22.708Z,34.73
2019-06-26T12:03:37.831Z,34.60
2019-06-26T12:08:43.331Z,34.71
2019-06-26T12:13:48.474Z,35.25
2019-06-26T12:18:53.586Z,36.08
2019-06-26T12:24:00.113Z,35.24
2019-06-26T12:29:05.264Z,33.18
2019-06-26T12:34:10.394Z,31.30
2019-06-26T12:39:15.599Z,31.16
2019-06-26T12:44:21.571Z,30.26
2019-06-26T12:49:27.129Z,31.05
2019-06-26T12:54:32.238Z,32.05
2019-06-26T12:59:52.705Z,33.31
2019-06-26T13:04:46.214Z,30.84
2019-06-26T13:09:51.593Z,31.24
2019-06-26T13:14:57.468Z,31.61
2019-06-26T13:20:02.575Z,30.87
2019-06-26T13:25:15.934Z,30.33
2019-06-26T13:30:27.797Z,30.13
2019-06-26T13:35:33.095Z,29.30
2019-06-26T13:40:41.106Z,29.47
2019-06-26T13:45:46.449Z,29.72
2019-06-26T13:51:08.806Z,29.79
2019-06-26T13:56:04.326Z,30.74
2019-06-26T14:01:11.451Z,31.55
2019-06-26T14:06:19.661Z,32.12
2019-06-26T14:11:24.727Z,31.98
2019-06-26T14:16:31.880Z,34.04
2019-06-26T14:21:38.585Z,33.97
2019-06-26T14:26:43.690Z,33.03
2019-06-26T14:31:51.579Z,31.54
2019-06-26T14:37:03.840Z,30.96
2019-06-26T14:42:09.014Z,32.26
2019-06-26T14:47:15.599Z,32.30
2019-06-26T14:52:22.301Z,32.87
2019-06-26T14:57:27.638Z,32.92
2019-06-26T15:02:37.589Z,33.17
2019-06-26T15:07:44.111Z,33.76
2019-06-26T15:12:49.722Z,34.27
2019-06-26T15:17:58.301Z,35.92
2019-06-26T15:23:06.036Z,37.06
2019-06-26T15:28:12.286Z,37.96
2019-06-26T15:33:19.322Z,38.14
2019-06-26T15:38:24.543Z,38.30
2019-06-26T15:43:31.751Z,38.58
2019-06-26T15:48:37.040Z,38.78
2019-06-26T15:53:42.090Z,39.21
2019-06-26T15:58:47.137Z,39.58
2019-06-26T16:03:52.294Z,39.78
2019-06-26T16:08:57.468Z,40.50
2019-06-26T16:14:02.531Z,40.29
2019-06-26T16:19:11.819Z,41.30
2019-06-26T16:24:16.864Z,41.01
2019-06-26T16:29:24.321Z,41.20
2019-06-26T16:34:31.114Z,41.15
2019-06-26T16:39:36.396Z,41.47
2019-06-26T16:44:47.015Z,41.57
2019-06-26T16:49:52.321Z,41.36
2019-06-26T16:54:58.527Z,41.23
2019-06-26T17:00:09.540Z,40.83
2019-06-26T17:05:12.543Z,40.91
2019-06-26T17:10:18.175Z,41.20
2019-06-26T17:15:23.264Z,41.10
2019-06-26T17:20:28.482Z,41.13
2019-06-26T17:25:33.648Z,41.08
2019-06-26T17:30:38.749Z,41.77
2019-06-26T17:35:43.835Z,42.56
2019-06-26T17:40:50.251Z,42.75
2019-06-26T17:46:00.849Z,42.53
2019-06-26T17:51:06.257Z,42.77
2019-06-26T17:56:11.345Z,42.95
2019-06-26T18:01:19.232Z,43.39
2019-06-26T18:06:27.053Z,43.54
2019-06-26T18:11:32.626Z,43.18
2019-06-26T18:16:38.557Z,42.73
2019-06-26T18:21:44.909Z,41.55
2019-06-26T18:26:51.483Z,40.75
2019-06-26T18:31:56.652Z,39.56
2019-06-26T18:37:02.310Z,39.13
2019-06-26T18:42:07.536Z,38.96
2019-06-26T18:47:12.952Z,38.91
2019-06-26T18:52:21.692Z,39.05
2019-06-26T18:57:28.270Z,39.36
2019-06-26T19:02:33.425Z,39.93
2019-06-26T19:07:38.668Z,40.21
2019-06-26T19:12:44.773Z,40.69
2019-06-26T19:17:49.880Z,41.45
2019-06-26T19:22:54.998Z,41.91
2019-06-26T19:28:00.262Z,42.63
2019-06-26T19:33:12.577Z,43.54
2019-06-26T19:38:17.696Z,44.17
2019-06-26T19:43:23.150Z,45.09
2019-06-26T19:48:28.279Z,45.77
2019-06-26T19:53:33.468Z,46.39
2019-06-26T19:58:39.743Z,46.72
2019-06-26T20:03:44.931Z,47.01
2019-06-26T20:08:54.650Z,47.17
2019-06-26T20:13:57.100Z,47.15
2019-06-26T20:19:02.302Z,46.96
2019-06-26T20:24:07.355Z,46.98
2019-06-26T20:29:12.873Z,47.24
2019-06-26T20:34:18.424Z,47.17
2019-06-26T20:39:23.533Z,46.97
2019-06-26T20:44:28.899Z,47.06
2019-06-26T20:49:34.070Z,47.15
2019-06-26T20:54:39.368Z,47.34
2019-06-26T20:59:44.492Z,47.43
2019-06-26T21:04:50.225Z,47.44
2019-06-26T21:09:55.317Z,47.55
2019-06-26T21:15:00.434Z,47.79
2019-06-26T21:20:06.140Z,47.60
2019-06-26T21:25:18.967Z,47.59
2019-06-26T21:30:18.353Z,47.55
2019-06-26T21:35:23.776Z,47.49
2019-06-26T21:40:28.962Z,47.59
2019-06-26T21:45:34.142Z,47.99
2019-06-26T21:50:39.253Z,48.16
2019-06-26T21:55:44.388Z,48.28
2019-06-26T22:01:07.421Z,48.49
2019-06-26T22:06:30.508Z,48.91
2019-06-26T22:11:43.002Z,49.35
2019-06-26T22:16:48.282Z,49.94
2019-06-26T22:21:53.717Z,50.24
2019-06-26T22:26:58.825Z,50.53
2019-06-26T22:32:04.346Z,50.67
2019-06-26T22:37:11.027Z,51.28
2019-06-26T22:42:16.492Z,51.79
2019-06-26T22:47:21.877Z,51.95
2019-06-26T22:52:26.953Z,52.47
2019-06-26T22:57:32.517Z,52.77
2019-06-26T23:02:37.581Z,52.87
2019-06-26T23:07:43.170Z,53.43
2019-06-26T23:12:48.263Z,53.57
2019-06-26T23:17:53.703Z,53.86
2019-06-26T23:22:58.834Z,54.22
2019-06-26T23:28:04.203Z,53.89
2019-06-26T23:33:09.793Z,54.15
2019-06-26T23:38:16.326Z,54.03
2019-06-26T23:43:21.373Z,54.15
2019-06-26T23:48:26.705Z,54.09
2019-06-26T23:53:31.757Z,54.13
2019-06-26T23:58:38.962Z,54.57
